TAM3879 SBFI-SBGR
Flight info
| Callsign | TAM3879 |
|---|---|
| Flight time | 1h 8m |
| Altitude | 37000 |
| Route | KAMIL UZ28 XONUG UZ121 BUXUK |
| Aircraft | A320/M-SDE3FGHIRWY/LB1 |
Departure
| Time | 2026-04-20 23:56 |
|---|---|
| Airport | Cataratas International Airport (SBFI) |
Arrival
| Time | 2026-04-21 01:04 |
|---|---|
| Airport | São Paulo/Guarulhos–Governor André Franco Montoro International Airport (SBGR) |
| Time | Latitude | Longitude | Altitude | Speed | Heading |
|---|---|---|---|---|---|
| 2026-04-20 22:46 | -25.59656 | -54.49020 | 795 ft | 0 kts | 221° |
| 2026-04-20 23:47 | -25.59650 | -54.49014 | 795 ft | 2 kts | 221° |
| 2026-04-20 23:47 | -25.59639 | -54.49003 | 795 ft | 2 kts | 221° |
| 2026-04-20 23:47 | -25.59627 | -54.48992 | 796 ft | 2 kts | 224° |
| 2026-04-20 23:48 | -25.59619 | -54.48979 | 796 ft | 2 kts | 248° |
| 2026-04-20 23:48 | -25.59615 | -54.48963 | 796 ft | 2 kts | 264° |
| 2026-04-20 23:48 | -25.59613 | -54.48946 | 796 ft | 2 kts | 261° |
| 2026-04-20 23:48 | -25.59615 | -54.48934 | 796 ft | 0 kts | 306° |
| 2026-04-20 23:49 | -25.59620 | -54.48929 | 796 ft | 1 kts | 313° |
| 2026-04-20 23:49 | -25.59621 | -54.48927 | 796 ft | 0 kts | 311° |
| 2026-04-20 23:50 | -25.59621 | -54.48928 | 795 ft | 0 kts | 311° |
| 2026-04-20 23:51 | -25.59613 | -54.48938 | 796 ft | 2 kts | 310° |
| 2026-04-20 23:51 | -25.59594 | -54.48957 | 796 ft | 4 kts | 333° |
| 2026-04-20 23:51 | -25.59555 | -54.48947 | 795 ft | 7 kts | 34° |
| 2026-04-20 23:51 | -25.59512 | -54.48909 | 796 ft | 8 kts | 40° |
| 2026-04-20 23:52 | -25.59458 | -54.48901 | 796 ft | 9 kts | 320° |
| 2026-04-20 23:52 | -25.59411 | -54.48958 | 796 ft | 10 kts | 310° |
| 2026-04-20 23:52 | -25.59359 | -54.49023 | 796 ft | 11 kts | 310° |
| 2026-04-20 23:52 | -25.59303 | -54.49095 | 796 ft | 12 kts | 310° |
| 2026-04-20 23:53 | -25.59240 | -54.49176 | 796 ft | 14 kts | 310° |
| 2026-04-20 23:53 | -25.59172 | -54.49264 | 796 ft | 15 kts | 310° |
| 2026-04-20 23:53 | -25.59100 | -54.49355 | 796 ft | 15 kts | 310° |
| 2026-04-20 23:53 | -25.59026 | -54.49450 | 796 ft | 16 kts | 310° |
| 2026-04-20 23:54 | -25.58951 | -54.49546 | 796 ft | 16 kts | 310° |
| 2026-04-20 23:54 | -25.58874 | -54.49646 | 796 ft | 17 kts | 310° |
| 2026-04-20 23:54 | -25.58795 | -54.49747 | 796 ft | 17 kts | 310° |
| 2026-04-20 23:54 | -25.58717 | -54.49846 | 796 ft | 14 kts | 312° |
| 2026-04-20 23:55 | -25.58640 | -54.49897 | 796 ft | 13 kts | 340° |
| 2026-04-20 23:55 | -25.58576 | -54.49959 | 796 ft | 11 kts | 282° |
| 2026-04-20 23:55 | -25.58616 | -54.49979 | 796 ft | 10 kts | 130° |
| 2026-04-20 23:55 | -25.58747 | -54.49809 | 796 ft | 62 kts | 130° |
| 2026-04-20 23:56 | -25.59185 | -54.49245 | 796 ft | 128 kts | 130° |
| 2026-04-20 23:56 | -25.59884 | -54.48354 | 910 ft | 168 kts | 130° |
| 2026-04-20 23:56 | -25.60640 | -54.47385 | 1499 ft | 168 kts | 128° |
| 2026-04-20 23:56 | -25.61435 | -54.46366 | 1877 ft | 183 kts | 127° |
| 2026-04-20 23:57 | -25.62302 | -54.45250 | 2234 ft | 200 kts | 127° |
| 2026-04-20 23:57 | -25.63261 | -54.44007 | 2547 ft | 222 kts | 127° |
| 2026-04-20 23:57 | -25.64267 | -54.42718 | 3272 ft | 224 kts | 126° |
| 2026-04-20 23:57 | -25.65292 | -54.41397 | 3937 ft | 229 kts | 126° |
| 2026-04-20 23:58 | -25.66139 | -54.39925 | 4605 ft | 228 kts | 100° |
| 2026-04-20 23:58 | -25.66164 | -54.38206 | 5300 ft | 227 kts | 78° |
| 2026-04-20 23:58 | -25.65863 | -54.36447 | 5816 ft | 241 kts | 75° |
| 2026-04-20 23:58 | -25.65530 | -54.34555 | 6283 ft | 260 kts | 76° |
| 2026-04-20 23:59 | -25.65219 | -54.32552 | 6808 ft | 275 kts | 77° |
| 2026-04-20 23:59 | -25.64931 | -54.30439 | 7536 ft | 282 kts | 78° |
| 2026-04-20 23:59 | -25.64660 | -54.28282 | 8303 ft | 287 kts | 79° |
| 2026-04-20 23:59 | -25.64396 | -54.26080 | 9040 ft | 293 kts | 79° |
| 2026-04-21 00:00 | -25.64132 | -54.23832 | 9761 ft | 298 kts | 79° |
| 2026-04-21 00:00 | -25.63872 | -54.21546 | 10441 ft | 304 kts | 79° |
| 2026-04-21 00:00 | -25.63605 | -54.19198 | 11061 ft | 311 kts | 79° |
| 2026-04-21 00:00 | -25.63335 | -54.16816 | 11798 ft | 314 kts | 78° |
| 2026-04-21 00:01 | -25.63066 | -54.14418 | 12500 ft | 316 kts | 78° |
| 2026-04-21 00:01 | -25.62792 | -54.12001 | 13151 ft | 319 kts | 78° |
| 2026-04-21 00:01 | -25.62513 | -54.09562 | 13808 ft | 322 kts | 78° |
| 2026-04-21 00:01 | -25.62231 | -54.07093 | 14404 ft | 327 kts | 78° |
| 2026-04-21 00:02 | -25.61944 | -54.04588 | 14992 ft | 331 kts | 78° |
| 2026-04-21 00:02 | -25.61655 | -54.02055 | 15598 ft | 335 kts | 78° |
| 2026-04-21 00:02 | -25.61360 | -53.99484 | 16152 ft | 340 kts | 78° |
| 2026-04-21 00:02 | -25.61066 | -53.96913 | 16700 ft | 344 kts | 78° |
| 2026-04-21 00:03 | -25.60765 | -53.94272 | 17253 ft | 349 kts | 78° |
| 2026-04-21 00:03 | -25.60458 | -53.91599 | 17806 ft | 353 kts | 78° |
| 2026-04-21 00:03 | -25.60145 | -53.88895 | 18330 ft | 357 kts | 79° |
| 2026-04-21 00:03 | -25.59827 | -53.86156 | 18838 ft | 362 kts | 79° |
| 2026-04-21 00:04 | -25.59506 | -53.83380 | 19318 ft | 367 kts | 79° |
| 2026-04-21 00:04 | -25.59181 | -53.80567 | 19780 ft | 372 kts | 79° |
| 2026-04-21 00:04 | -25.58851 | -53.77716 | 20253 ft | 376 kts | 79° |
| 2026-04-21 00:04 | -25.58406 | -53.74852 | 20708 ft | 380 kts | 76° |
| 2026-04-21 00:05 | -25.57879 | -53.71978 | 21181 ft | 384 kts | 76° |
| 2026-04-21 00:05 | -25.57335 | -53.69080 | 21651 ft | 387 kts | 76° |
| 2026-04-21 00:05 | -25.56782 | -53.66147 | 22081 ft | 392 kts | 76° |
| 2026-04-21 00:05 | -25.56226 | -53.63179 | 22501 ft | 397 kts | 76° |
| 2026-04-21 00:06 | -25.55663 | -53.60177 | 22933 ft | 401 kts | 77° |
| 2026-04-21 00:06 | -25.55096 | -53.57143 | 23384 ft | 405 kts | 77° |
| 2026-04-21 00:06 | -25.54533 | -53.54136 | 23873 ft | 406 kts | 77° |
| 2026-04-21 00:06 | -25.53962 | -53.51082 | 24391 ft | 406 kts | 77° |
| 2026-04-21 00:07 | -25.53387 | -53.48020 | 24873 ft | 408 kts | 78° |
| 2026-04-21 00:07 | -25.52811 | -53.44948 | 25358 ft | 409 kts | 78° |
| 2026-04-21 00:07 | -25.52234 | -53.41872 | 25839 ft | 410 kts | 78° |
| 2026-04-21 00:07 | -25.51654 | -53.38786 | 26287 ft | 411 kts | 78° |
| 2026-04-21 00:08 | -25.51071 | -53.35692 | 26731 ft | 413 kts | 78° |
| 2026-04-21 00:08 | -25.50487 | -53.32597 | 27148 ft | 414 kts | 78° |
| 2026-04-21 00:08 | -25.49899 | -53.29477 | 27563 ft | 416 kts | 78° |
| 2026-04-21 00:08 | -25.49308 | -53.26348 | 27968 ft | 417 kts | 78° |
| 2026-04-21 00:09 | -25.48714 | -53.23206 | 28351 ft | 419 kts | 78° |
| 2026-04-21 00:09 | -25.48117 | -53.20053 | 28757 ft | 420 kts | 78° |
| 2026-04-21 00:09 | -25.47517 | -53.16890 | 29133 ft | 422 kts | 78° |
| 2026-04-21 00:09 | -25.46913 | -53.13706 | 29477 ft | 425 kts | 78° |
| 2026-04-21 00:10 | -25.46305 | -53.10504 | 29821 ft | 428 kts | 78° |
| 2026-04-21 00:10 | -25.45692 | -53.07283 | 30184 ft | 430 kts | 78° |
| 2026-04-21 00:10 | -25.45074 | -53.04042 | 30497 ft | 433 kts | 79° |
| 2026-04-21 00:10 | -25.44451 | -53.00777 | 30806 ft | 436 kts | 79° |
| 2026-04-21 00:11 | -25.43822 | -52.97490 | 31110 ft | 438 kts | 79° |
| 2026-04-21 00:11 | -25.43188 | -52.94188 | 31417 ft | 441 kts | 79° |
| 2026-04-21 00:11 | -25.42550 | -52.90864 | 31699 ft | 444 kts | 79° |
| 2026-04-21 00:11 | -25.41914 | -52.87568 | 31977 ft | 447 kts | 79° |
| 2026-04-21 00:12 | -25.41267 | -52.84215 | 32357 ft | 446 kts | 79° |
| 2026-04-21 00:12 | -25.40622 | -52.80869 | 32761 ft | 445 kts | 79° |
| 2026-04-21 00:12 | -25.39978 | -52.77527 | 33147 ft | 445 kts | 79° |
| 2026-04-21 00:12 | -25.39332 | -52.74183 | 33516 ft | 446 kts | 79° |
| 2026-04-21 00:13 | -25.38685 | -52.70837 | 33880 ft | 446 kts | 79° |
| 2026-04-21 00:13 | -25.38038 | -52.67493 | 34280 ft | 445 kts | 79° |
| 2026-04-21 00:13 | -25.37390 | -52.64151 | 34652 ft | 445 kts | 79° |
| 2026-04-21 00:13 | -25.36742 | -52.60811 | 35020 ft | 445 kts | 79° |
| 2026-04-21 00:14 | -25.36093 | -52.57477 | 35390 ft | 444 kts | 79° |
| 2026-04-21 00:14 | -25.35444 | -52.54147 | 35722 ft | 444 kts | 79° |
| 2026-04-21 00:14 | -25.34796 | -52.50818 | 36042 ft | 444 kts | 79° |
| 2026-04-21 00:14 | -25.34145 | -52.47486 | 36305 ft | 445 kts | 79° |
| 2026-04-21 00:15 | -25.33492 | -52.44149 | 36575 ft | 445 kts | 79° |
| 2026-04-21 00:15 | -25.32848 | -52.40854 | 36810 ft | 446 kts | 79° |
| 2026-04-21 00:15 | -25.32191 | -52.37496 | 36948 ft | 450 kts | 78° |
| 2026-04-21 00:15 | -25.31524 | -52.34095 | 37053 ft | 453 kts | 78° |
| 2026-04-21 00:16 | -25.30848 | -52.30666 | 37132 ft | 458 kts | 78° |
| 2026-04-21 00:16 | -25.29480 | -52.23727 | 37140 ft | 468 kts | 78° |
| 2026-04-21 00:17 | -25.28074 | -52.16637 | 37151 ft | 478 kts | 78° |
| 2026-04-21 00:17 | -25.26650 | -52.09461 | 37153 ft | 487 kts | 78° |
| 2026-04-21 00:18 | -25.25182 | -52.02099 | 37146 ft | 495 kts | 78° |
| 2026-04-21 00:18 | -25.23698 | -51.94664 | 37140 ft | 497 kts | 78° |
| 2026-04-21 00:19 | -25.22207 | -51.87220 | 37150 ft | 497 kts | 78° |
| 2026-04-21 00:19 | -25.20717 | -51.79792 | 37152 ft | 496 kts | 78° |
| 2026-04-21 00:20 | -25.19224 | -51.72369 | 37153 ft | 496 kts | 78° |
| 2026-04-21 00:20 | -25.17731 | -51.64959 | 37156 ft | 495 kts | 78° |
| 2026-04-21 00:21 | -25.16240 | -51.57599 | 37172 ft | 495 kts | 78° |
| 2026-04-21 00:21 | -25.14728 | -51.50185 | 37171 ft | 496 kts | 78° |
| 2026-04-21 00:22 | -25.13218 | -51.42778 | 37175 ft | 495 kts | 78° |
| 2026-04-21 00:22 | -25.11702 | -51.35372 | 37180 ft | 495 kts | 78° |
| 2026-04-21 00:23 | -25.09817 | -51.28082 | 37174 ft | 496 kts | 69° |
| 2026-04-21 00:23 | -25.07280 | -51.21014 | 37165 ft | 496 kts | 68° |
| 2026-04-21 00:24 | -25.04752 | -51.13929 | 37142 ft | 497 kts | 69° |
| 2026-04-21 00:24 | -25.02279 | -51.06836 | 37117 ft | 495 kts | 69° |
| 2026-04-21 00:25 | -24.99789 | -50.99766 | 37107 ft | 495 kts | 68° |
| 2026-04-21 00:25 | -24.97157 | -50.92776 | 37111 ft | 494 kts | 68° |
| 2026-04-21 00:26 | -24.94518 | -50.85806 | 37116 ft | 493 kts | 68° |
| 2026-04-21 00:26 | -24.91914 | -50.78887 | 37130 ft | 494 kts | 68° |
| 2026-04-21 00:27 | -24.89273 | -50.71880 | 37142 ft | 493 kts | 68° |
| 2026-04-21 00:27 | -24.86644 | -50.64912 | 37147 ft | 493 kts | 68° |
| 2026-04-21 00:28 | -24.84013 | -50.57952 | 37146 ft | 493 kts | 68° |
| 2026-04-21 00:28 | -24.81382 | -50.51002 | 37144 ft | 492 kts | 68° |
| 2026-04-21 00:29 | -24.78767 | -50.44098 | 37147 ft | 493 kts | 68° |
| 2026-04-21 00:29 | -24.76128 | -50.37153 | 37159 ft | 492 kts | 68° |
| 2026-04-21 00:30 | -24.73474 | -50.30184 | 37168 ft | 492 kts | 68° |
| 2026-04-21 00:30 | -24.70846 | -50.23293 | 37175 ft | 492 kts | 68° |
| 2026-04-21 00:31 | -24.68198 | -50.16357 | 37176 ft | 491 kts | 68° |
| 2026-04-21 00:31 | -24.65559 | -50.09451 | 37181 ft | 491 kts | 68° |
| 2026-04-21 00:32 | -24.62918 | -50.02548 | 37184 ft | 490 kts | 68° |
| 2026-04-21 00:32 | -24.60275 | -49.95649 | 37190 ft | 490 kts | 68° |
| 2026-04-21 00:33 | -24.57624 | -49.88752 | 37190 ft | 490 kts | 68° |
| 2026-04-21 00:33 | -24.54986 | -49.81910 | 37193 ft | 490 kts | 68° |
| 2026-04-21 00:34 | -24.52333 | -49.75026 | 37192 ft | 490 kts | 68° |
| 2026-04-21 00:34 | -24.49679 | -49.68147 | 37187 ft | 489 kts | 68° |
| 2026-04-21 00:35 | -24.47026 | -49.61278 | 37182 ft | 489 kts | 68° |
| 2026-04-21 00:35 | -24.44374 | -49.54425 | 37178 ft | 489 kts | 68° |
| 2026-04-21 00:36 | -24.41712 | -49.47566 | 37174 ft | 489 kts | 68° |
| 2026-04-21 00:36 | -24.39068 | -49.40763 | 37166 ft | 488 kts | 68° |
| 2026-04-21 00:37 | -24.36402 | -49.33905 | 37159 ft | 488 kts | 68° |
| 2026-04-21 00:37 | -24.33741 | -49.27076 | 37156 ft | 488 kts | 68° |
| 2026-04-21 00:38 | -24.31072 | -49.20250 | 37157 ft | 487 kts | 68° |
| 2026-04-21 00:38 | -24.28404 | -49.13427 | 37158 ft | 488 kts | 68° |
| 2026-04-21 00:39 | -24.25733 | -49.06601 | 37160 ft | 487 kts | 68° |
| 2026-04-21 00:39 | -24.23081 | -48.99834 | 37164 ft | 487 kts | 68° |
| 2026-04-21 00:40 | -24.20414 | -48.93038 | 37168 ft | 486 kts | 68° |
| 2026-04-21 00:40 | -24.17741 | -48.86253 | 37165 ft | 486 kts | 68° |
| 2026-04-21 00:41 | -24.15065 | -48.79469 | 37166 ft | 486 kts | 68° |
| 2026-04-21 00:41 | -24.12386 | -48.72679 | 37163 ft | 486 kts | 68° |
| 2026-04-21 00:42 | -24.09704 | -48.65892 | 37152 ft | 486 kts | 68° |
| 2026-04-21 00:42 | -24.07042 | -48.59161 | 37142 ft | 486 kts | 68° |
| 2026-04-21 00:43 | -24.04356 | -48.52380 | 37137 ft | 486 kts | 68° |
| 2026-04-21 00:43 | -24.01664 | -48.45599 | 37132 ft | 486 kts | 68° |
| 2026-04-21 00:44 | -23.98972 | -48.38823 | 37129 ft | 486 kts | 68° |
| 2026-04-21 00:44 | -23.96295 | -48.32091 | 37128 ft | 486 kts | 68° |
| 2026-04-21 00:45 | -23.93669 | -48.25410 | 36749 ft | 488 kts | 68° |
| 2026-04-21 00:45 | -23.92334 | -48.22008 | 36073 ft | 487 kts | 68° |
| 2026-04-21 00:45 | -23.91001 | -48.18618 | 35555 ft | 486 kts | 68° |
| 2026-04-21 00:45 | -23.89662 | -48.15213 | 35042 ft | 487 kts | 68° |
| 2026-04-21 00:46 | -23.88328 | -48.11827 | 34511 ft | 487 kts | 68° |
| 2026-04-21 00:46 | -23.86989 | -48.08425 | 33975 ft | 487 kts | 68° |
| 2026-04-21 00:46 | -23.85648 | -48.05024 | 33436 ft | 489 kts | 68° |
| 2026-04-21 00:46 | -23.84310 | -48.01635 | 32895 ft | 487 kts | 68° |
| 2026-04-21 00:47 | -23.82975 | -47.98255 | 32392 ft | 483 kts | 68° |
| 2026-04-21 00:47 | -23.81656 | -47.94915 | 31857 ft | 478 kts | 68° |
| 2026-04-21 00:47 | -23.80348 | -47.91607 | 31220 ft | 475 kts | 68° |
| 2026-04-21 00:47 | -23.79043 | -47.88312 | 30525 ft | 473 kts | 68° |
| 2026-04-21 00:48 | -23.77694 | -47.85067 | 30020 ft | 467 kts | 64° |
| 2026-04-21 00:48 | -23.76049 | -47.82037 | 29545 ft | 462 kts | 57° |
| 2026-04-21 00:48 | -23.74121 | -47.79310 | 29066 ft | 456 kts | 50° |
| 2026-04-21 00:48 | -23.72008 | -47.76761 | 28607 ft | 449 kts | 52° |
| 2026-04-21 00:49 | -23.70493 | -47.73835 | 28037 ft | 442 kts | 72° |
| 2026-04-21 00:49 | -23.69702 | -47.70631 | 27542 ft | 436 kts | 78° |
| 2026-04-21 00:49 | -23.69052 | -47.67421 | 26982 ft | 433 kts | 78° |
| 2026-04-21 00:49 | -23.68370 | -47.64244 | 26414 ft | 430 kts | 77° |
| 2026-04-21 00:50 | -23.67631 | -47.61107 | 25883 ft | 426 kts | 76° |
| 2026-04-21 00:50 | -23.66865 | -47.58052 | 25342 ft | 423 kts | 75° |
| 2026-04-21 00:50 | -23.66060 | -47.54964 | 24453 ft | 427 kts | 75° |
| 2026-04-21 00:50 | -23.65234 | -47.51875 | 23239 ft | 429 kts | 74° |
| 2026-04-21 00:51 | -23.64395 | -47.48776 | 21798 ft | 432 kts | 74° |
| 2026-04-21 00:51 | -23.63536 | -47.45642 | 20381 ft | 438 kts | 74° |
| 2026-04-21 00:51 | -23.62670 | -47.42493 | 19341 ft | 432 kts | 74° |
| 2026-04-21 00:51 | -23.61817 | -47.39400 | 18438 ft | 423 kts | 75° |
| 2026-04-21 00:52 | -23.60983 | -47.36380 | 17392 ft | 414 kts | 75° |
| 2026-04-21 00:52 | -23.60165 | -47.33414 | 16298 ft | 407 kts | 75° |
| 2026-04-21 00:52 | -23.59360 | -47.30498 | 15215 ft | 400 kts | 75° |
| 2026-04-21 00:52 | -23.58565 | -47.27613 | 14267 ft | 399 kts | 75° |
| 2026-04-21 00:53 | -23.57774 | -47.24747 | 13674 ft | 392 kts | 75° |
| 2026-04-21 00:53 | -23.56993 | -47.21927 | 13151 ft | 386 kts | 75° |
| 2026-04-21 00:53 | -23.56235 | -47.19188 | 12567 ft | 382 kts | 75° |
| 2026-04-21 00:53 | -23.55475 | -47.16433 | 11943 ft | 379 kts | 75° |
| 2026-04-21 00:54 | -23.54718 | -47.13700 | 11299 ft | 376 kts | 75° |
| 2026-04-21 00:54 | -23.53967 | -47.10983 | 10633 ft | 374 kts | 75° |
| 2026-04-21 00:54 | -23.53219 | -47.08289 | 10073 ft | 368 kts | 75° |
| 2026-04-21 00:54 | -23.52495 | -47.05695 | 9835 ft | 354 kts | 75° |
| 2026-04-21 00:55 | -23.51793 | -47.03177 | 9611 ft | 341 kts | 75° |
| 2026-04-21 00:55 | -23.51119 | -47.00750 | 9401 ft | 328 kts | 75° |
| 2026-04-21 00:55 | -23.50464 | -46.98395 | 9070 ft | 321 kts | 75° |
| 2026-04-21 00:55 | -23.49815 | -46.96062 | 8626 ft | 318 kts | 75° |
| 2026-04-21 00:56 | -23.49354 | -46.94402 | 8296 ft | 317 kts | 75° |
| 2026-04-21 00:56 | -23.48862 | -46.92632 | 7931 ft | 316 kts | 75° |
| 2026-04-21 00:56 | -23.48229 | -46.90350 | 7454 ft | 314 kts | 76° |
| 2026-04-21 00:56 | -23.47841 | -46.88040 | 7048 ft | 307 kts | 89° |
| 2026-04-21 00:57 | -23.47809 | -46.85764 | 6859 ft | 295 kts | 92° |
| 2026-04-21 00:57 | -23.47826 | -46.83561 | 6670 ft | 285 kts | 92° |
| 2026-04-21 00:57 | -23.47833 | -46.82384 | 6569 ft | 279 kts | 92° |
| 2026-04-21 00:57 | -23.47841 | -46.80529 | 6413 ft | 271 kts | 92° |
| 2026-04-21 00:58 | -23.47851 | -46.78508 | 6245 ft | 262 kts | 92° |
| 2026-04-21 00:58 | -23.47855 | -46.76581 | 6140 ft | 251 kts | 92° |
| 2026-04-21 00:58 | -23.47857 | -46.74732 | 6082 ft | 239 kts | 92° |
| 2026-04-21 00:58 | -23.47860 | -46.72961 | 6025 ft | 227 kts | 92° |
| 2026-04-21 00:59 | -23.47855 | -46.71294 | 5965 ft | 215 kts | 92° |
| 2026-04-21 00:59 | -23.47845 | -46.69700 | 5942 ft | 200 kts | 92° |
| 2026-04-21 00:59 | -23.47836 | -46.68246 | 5933 ft | 183 kts | 92° |
| 2026-04-21 00:59 | -23.47848 | -46.66879 | 5814 ft | 182 kts | 94° |
| 2026-04-21 01:00 | -23.47808 | -46.65513 | 5578 ft | 182 kts | 87° |
| 2026-04-21 01:00 | -23.47606 | -46.64148 | 5340 ft | 182 kts | 81° |
| 2026-04-21 01:00 | -23.47322 | -46.62825 | 5103 ft | 179 kts | 78° |
| 2026-04-21 01:00 | -23.46999 | -46.61530 | 4868 ft | 175 kts | 77° |
| 2026-04-21 01:01 | -23.46665 | -46.60273 | 4641 ft | 170 kts | 77° |
| 2026-04-21 01:01 | -23.46337 | -46.59067 | 4424 ft | 166 kts | 77° |
| 2026-04-21 01:01 | -23.46014 | -46.57884 | 4223 ft | 155 kts | 77° |
| 2026-04-21 01:01 | -23.45713 | -46.56780 | 4025 ft | 150 kts | 77° |
| 2026-04-21 01:02 | -23.45423 | -46.55707 | 3838 ft | 149 kts | 77° |
| 2026-04-21 01:02 | -23.45129 | -46.54622 | 3649 ft | 149 kts | 77° |
| 2026-04-21 01:02 | -23.44836 | -46.53543 | 3456 ft | 148 kts | 77° |
| 2026-04-21 01:02 | -23.44545 | -46.52468 | 3262 ft | 148 kts | 77° |
| 2026-04-21 01:03 | -23.44253 | -46.51391 | 3066 ft | 147 kts | 76° |
| 2026-04-21 01:03 | -23.43969 | -46.50328 | 2873 ft | 147 kts | 76° |
| 2026-04-21 01:03 | -23.43684 | -46.49271 | 2684 ft | 146 kts | 76° |
| 2026-04-21 01:03 | -23.43398 | -46.48214 | 2495 ft | 144 kts | 75° |
| 2026-04-21 01:04 | -23.43140 | -46.47257 | 2469 ft | 110 kts | 74° |
| 2026-04-21 01:04 | -23.42972 | -46.46636 | 2469 ft | 64 kts | 73° |
| 2026-04-21 01:04 | -23.42871 | -46.46265 | 2469 ft | 28 kts | 75° |
| 2026-04-21 01:04 | -23.42802 | -46.46188 | 2469 ft | 15 kts | 349° |
| 2026-04-21 01:05 | -23.42717 | -46.46215 | 2469 ft | 6 kts | 343° |
| 2026-04-21 01:05 | -23.42672 | -46.46229 | 2469 ft | 7 kts | 343° |
| 2026-04-21 01:05 | -23.42621 | -46.46254 | 2469 ft | 8 kts | 304° |
| 2026-04-21 01:05 | -23.42628 | -46.46321 | 2469 ft | 9 kts | 253° |
| 2026-04-21 01:06 | -23.42649 | -46.46398 | 2469 ft | 11 kts | 253° |
| 2026-04-21 01:06 | -23.42672 | -46.46484 | 2469 ft | 12 kts | 254° |
| 2026-04-21 01:06 | -23.42697 | -46.46577 | 2469 ft | 13 kts | 254° |
| 2026-04-21 01:06 | -23.42724 | -46.46677 | 2469 ft | 14 kts | 253° |
| 2026-04-21 01:07 | -23.42753 | -46.46783 | 2469 ft | 14 kts | 254° |
| 2026-04-21 01:07 | -23.42783 | -46.46894 | 2469 ft | 15 kts | 254° |
| 2026-04-21 01:07 | -23.42812 | -46.47001 | 2469 ft | 14 kts | 253° |
| 2026-04-21 01:07 | -23.42840 | -46.47107 | 2469 ft | 14 kts | 254° |
| 2026-04-21 01:08 | -23.42867 | -46.47207 | 2469 ft | 13 kts | 253° |
| 2026-04-21 01:08 | -23.42894 | -46.47304 | 2469 ft | 13 kts | 253° |
| 2026-04-21 01:08 | -23.42920 | -46.47400 | 2469 ft | 12 kts | 254° |
| 2026-04-21 01:08 | -23.42945 | -46.47492 | 2469 ft | 12 kts | 254° |
| 2026-04-21 01:09 | -23.42969 | -46.47582 | 2469 ft | 12 kts | 254° |
| 2026-04-21 01:09 | -23.42993 | -46.47670 | 2469 ft | 12 kts | 254° |
| 2026-04-21 01:09 | -23.43016 | -46.47756 | 2469 ft | 11 kts | 253° |
| 2026-04-21 01:09 | -23.43040 | -46.47842 | 2468 ft | 11 kts | 253° |
| 2026-04-21 01:10 | -23.43062 | -46.47926 | 2468 ft | 11 kts | 254° |
| 2026-04-21 01:10 | -23.43084 | -46.48008 | 2468 ft | 11 kts | 255° |
| 2026-04-21 01:10 | -23.43102 | -46.48090 | 2468 ft | 10 kts | 274° |
| 2026-04-21 01:10 | -23.43045 | -46.48132 | 2468 ft | 11 kts | 354° |
| 2026-04-21 01:11 | -23.42978 | -46.48140 | 2468 ft | 7 kts | 341° |
| 2026-04-21 01:11 | -23.42946 | -46.48183 | 2468 ft | 7 kts | 295° |
| 2026-04-21 01:11 | -23.42929 | -46.48223 | 2468 ft | 1 kts | 294° |
| 2026-04-21 01:11 | -23.42929 | -46.48225 | 2468 ft | 0 kts | 295° |